Time,TemperatureF,DewpointF,PressureIn,WindDirection,WindDirectionDegrees,WindSpeedMPH,WindSpeedGustMPH,Humidity,HourlyPrecipIn,Conditions,Clouds,dailyrainin,SoftwareType,DateUTC
2013-01-12 00:22:00,20.0,17.0,-100.00,SSW,210,42.0,47.0,89,0.00,,,-99.99,,2013-01-12 08:22:00,
2013-01-12 00:32:00,20.0,17.0,-100.00,SSW,210,42.0,47.0,89,0.00,,,-99.99,,2013-01-12 08:32:00,
2013-01-12 00:42:00,20.0,17.0,-100.00,SSW,210,42.0,47.0,89,0.00,,,-99.99,,2013-01-12 08:42:00,
2013-01-12 00:52:00,20.0,17.0,-100.00,SSW,210,42.0,47.0,89,0.00,,,-99.99,,2013-01-12 08:52:00,
2013-01-12 01:22:00,19.0,16.0,-100.00,SSW,210,41.0,45.0,88,0.00,,,-99.99,,2013-01-12 09:22:00,
2013-01-12 01:32:00,19.0,16.0,-100.00,SSW,210,41.0,45.0,88,0.00,,,-99.99,,2013-01-12 09:32:00,
2013-01-12 01:42:00,19.0,16.0,-100.00,SSW,210,41.0,45.0,88,0.00,,,-99.99,,2013-01-12 09:42:00,
2013-01-12 01:52:00,19.0,16.0,-100.00,SSW,210,41.0,45.0,88,0.00,,,-99.99,,2013-01-12 09:52:00,
2013-01-12 02:22:00,18.0,15.0,-100.00,SSW,210,41.0,-999.0,86,0.00,,,-99.99,,2013-01-12 10:22:00,
2013-01-12 02:32:00,18.0,15.0,-100.00,SSW,210,41.0,-999.0,86,0.00,,,-99.99,,2013-01-12 10:32:00,
2013-01-12 02:42:00,18.0,15.0,-100.00,SSW,210,41.0,-999.0,86,0.00,,,-99.99,,2013-01-12 10:42:00,
2013-01-12 02:52:00,18.0,15.0,-100.00,SSW,210,41.0,-999.0,86,0.00,,,-99.99,,2013-01-12 10:52:00,
2013-01-12 14:22:00,23.0,13.0,-100.00,NE,40,20.0,24.0,65,0.00,,,-99.99,,2013-01-12 22:22:00,
2013-01-12 14:32:00,23.0,13.0,-100.00,NE,40,20.0,24.0,65,0.00,,,-99.99,,2013-01-12 22:32:00,
2013-01-12 14:43:00,23.0,13.0,-100.00,NE,40,20.0,24.0,65,0.00,,,-99.99,,2013-01-12 22:43:00,
2013-01-12 14:52:00,23.0,13.0,-100.00,NE,40,20.0,24.0,65,0.00,,,-99.99,,2013-01-12 22:52:00,
2013-01-12 15:32:00,26.0,16.0,-100.00,South,170,12.0,15.0,64,0.00,,,-99.99,,2013-01-12 23:32:00,
2013-01-12 15:42:00,26.0,16.0,-100.00,South,170,12.0,15.0,64,0.00,,,-99.99,,2013-01-12 23:42:00,
2013-01-12 15:52:00,26.0,16.0,-100.00,South,170,12.0,15.0,64,0.00,,,-99.99,,2013-01-12 23:52:00,
2013-01-12 16:22:00,24.0,14.0,-100.00,SSW,210,9.0,18.0,66,0.00,,,-99.99,,2013-01-13 00:22:00,
2013-01-12 16:32:00,24.0,14.0,-100.00,SSW,210,9.0,18.0,66,0.00,,,-99.99,,2013-01-13 00:32:00,
2013-01-12 16:42:00,24.0,14.0,-100.00,SSW,210,9.0,18.0,66,0.00,,,-99.99,,2013-01-13 00:42:00,
2013-01-12 16:52:00,24.0,14.0,-100.00,SSW,210,9.0,18.0,66,0.00,,,-99.99,,2013-01-13 00:52:00,
2013-01-12 17:22:00,24.0,15.0,-100.00,SSW,210,11.0,17.0,68,0.00,,,-99.99,,2013-01-13 01:22:00,
2013-01-12 17:32:00,24.0,15.0,-100.00,SSW,210,11.0,17.0,68,0.00,,,-99.99,,2013-01-13 01:32:00,
2013-01-12 17:42:00,24.0,15.0,-100.00,SSW,210,11.0,17.0,68,0.00,,,-99.99,,2013-01-13 01:42:00,
2013-01-12 17:52:00,24.0,15.0,-100.00,SSW,210,11.0,17.0,68,0.00,,,-99.99,,2013-01-13 01:52:00,
2013-01-12 18:22:00,21.0,15.0,-100.00,SSW,210,11.0,24.0,76,0.00,,,-99.99,,2013-01-13 02:22:00,
2013-01-12 18:32:00,21.0,15.0,-100.00,SSW,210,11.0,24.0,76,0.00,,,-99.99,,2013-01-13 02:32:00,
2013-01-12 18:42:00,21.0,15.0,-100.00,SSW,210,11.0,24.0,76,0.00,,,-99.99,,2013-01-13 02:42:00,
2013-01-12 18:52:00,21.0,15.0,-100.00,SSW,210,11.0,24.0,76,0.00,,,-99.99,,2013-01-13 02:52:00,
2013-01-12 19:22:00,21.0,17.0,-100.00,SW,220,8.0,13.0,83,0.00,,,-99.99,,2013-01-13 03:22:00,
2013-01-12 19:32:00,21.0,17.0,-100.00,SW,220,8.0,13.0,83,0.00,,,-99.99,,2013-01-13 03:32:00,
2013-01-12 19:42:00,21.0,17.0,-100.00,SW,220,8.0,13.0,83,0.00,,,-99.99,,2013-01-13 03:42:00,
2013-01-12 19:52:00,21.0,17.0,-100.00,SW,220,8.0,13.0,83,0.00,,,-99.99,,2013-01-13 03:52:00,
2013-01-12 20:22:00,21.0,17.0,-100.00,SSW,210,15.0,18.0,83,0.00,,,-99.99,,2013-01-13 04:22:00,
2013-01-12 20:32:00,21.0,17.0,-100.00,SSW,210,15.0,18.0,83,0.00,,,-99.99,,2013-01-13 04:32:00,
2013-01-12 20:42:00,21.0,17.0,-100.00,SSW,210,15.0,18.0,83,0.00,,,-99.99,,2013-01-13 04:42:00,
2013-01-12 20:52:00,21.0,17.0,-100.00,SSW,210,15.0,18.0,83,0.00,,,-99.99,,2013-01-13 04:52:00,
2013-01-12 21:22:00,20.0,13.0,-100.00,WSW,240,12.0,32.0,73,0.00,,,-99.99,,2013-01-13 05:22:00,
2013-01-12 21:32:00,20.0,13.0,-100.00,WSW,240,12.0,32.0,73,0.00,,,-99.99,,2013-01-13 05:32:00,
2013-01-12 21:42:00,20.0,13.0,-100.00,WSW,240,12.0,32.0,73,0.00,,,-99.99,,2013-01-13 05:42:00,
2013-01-12 21:52:00,20.0,13.0,-100.00,WSW,240,12.0,32.0,73,0.00,,,-99.99,,2013-01-13 05:52:00,
2013-01-12 22:22:00,21.0,15.0,-100.00,SSW,210,19.0,22.0,77,0.00,,,-99.99,,2013-01-13 06:22:00,
2013-01-12 22:32:00,21.0,15.0,-100.00,SSW,210,19.0,22.0,77,0.00,,,-99.99,,2013-01-13 06:32:00,
2013-01-12 22:42:00,21.0,15.0,-100.00,SSW,210,19.0,22.0,77,0.00,,,-99.99,,2013-01-13 06:42:00,
2013-01-12 22:52:00,21.0,15.0,-100.00,SSW,210,19.0,22.0,77,0.00,,,-99.99,,2013-01-13 06:52:00,
2013-01-12 23:22:00,21.0,14.0,-100.00,SSW,210,27.0,28.0,75,0.00,,,-99.99,,2013-01-13 07:22:00,
2013-01-12 23:32:00,21.0,14.0,-100.00,SSW,210,27.0,28.0,75,0.00,,,-99.99,,2013-01-13 07:32:00,
2013-01-12 23:42:00,21.0,14.0,-100.00,SSW,210,27.0,28.0,75,0.00,,,-99.99,,2013-01-13 07:42:00,
2013-01-12 23:52:00,21.0,14.0,-100.00,SSW,210,27.0,28.0,75,0.00,,,-99.99,,2013-01-13 07:52:00,